LFPG/CDG METAR and TAF weather

Enter ICAO airport designator
Station Type Date Time Source
LFPG METAR 2020/01/26 19:00 UTC NOAA

LFPG 261900Z 18010KT 9999 FEW045 BKN056 08/06 Q1015 NOSIG


Station Type Date Time Source
LFPG Decoded METAR 2020/01/26 19:00 UTC NOAA

Paris-Aeroport Charles De Gaulle, France (LFPG) 49-01N 002-32E 109M
Jan 26, 2020 - 02:00 PM EST / 2020.01.26 1900 UTC
Wind: from the S (180 degrees) at 12 MPH (10 KT):0
Visibility: greater than 7 mile(s):0
Sky conditions: mostly cloudy
Temperature: 46 F (8 C)
Dew Point: 42 F (6 C)
Relative Humidity: 87%
Pressure (altimeter): 29.97 in. Hg (1015 hPa)
ob: LFPG 261900Z 18010KT 9999 FEW045 BKN056 08/06 Q1015 NOSIG
cycle: 19

Station Type Date Time Source
LFPG TAF 2020/01/26 18:59 UTC NOAA

TAF LFPG 261700Z 2618/2724 20010KT 8000 BKN045 TX09/2703Z TN07/2618Z
BECMG 2618/2620 BKN018
BECMG 2620/2623 20015G25KT
TEMPO 2620/2718 4500 -RA BKN012
TEMPO 2704/2707 BKN006
BECMG 2718/2720 BKN020
TEMPO 2719/2724 21015G30KT 4000 SHRA BKN016 SCT020TCU

Example: see airport list